Wilmington, NC

10:52 PM EDT on March 27, 2015 (GMT -0400)
Middle Sound Loop Rd | | Change Station
CLOSE
Current Station
Personal Weather Station
Location: Wilmington, NC
Elevation: 33 ft
Nearby Weather Stations
Active Advisory: Freeze Watch

Elev 33 ft 34.27 °N, 77.82 °W | Updated 20 seconds ago

Overcast
Overcast
43.5 °F
Feels Like 44 °F
N
0.0
Wind Variable Wind from North
Gusts 6.0 mph

Today
High -- | Low -- °F
--% Chance of Precip.
Yesterday
High -- | Low -- °F
Precip. -- in
7:05 AM 7:28 PM
First Quarter, 58% visible
Pressure 29.80 in
Visibility 10.0 miles
Clouds Few 1500 ft
Overcast 3000 ft
Windchill 44 °F
Dew Point 40 °F
Humidity 86%
Rainfall 0.64 in
Snow Depth Not available.
UV 0 out of 12
Pollen 4.50 out of 12
Air Quality Not available.
Flu Activity Not available.
SPECI KILM 280233Z 35011KT 10SM FEW015 OVC030 07/05 A2980 RMK AO2 T00670050

More Conditions Fewer Conditions

Pressure 29.80 in
Visibility 10.0 miles
Clouds Few 1500 ft
Overcast 3000 ft
Windchill 44 °F
Dew Point 40 °F
Humidity 86%
Rainfall 0.64 in
Snow Depth Not available.
UV 0 out of 12
Pollen 4.50 out of 12
Air Quality Not available.
Flu Activity Not available.
SPECI KILM 280233Z 35011KT 10SM FEW015 OVC030 07/05 A2980 RMK AO2 T00670050

More Conditions Fewer Conditions

10-Day Weather Forecast

Almanac

Astronomy

Mar. 27, 2015 Rise Set
Actual Time
Civil Twilight
Nautical Twilight
Astronomical Twilight
Moon
Length of Visible Light
Length of Day
Tomorrow will be .
, % of the Moon is Illuminated

Today's Extremes

State Highs State Lows

Community

WunderPhotos

Upload Photos

1,808,916 photos uploaded!

WunderBlogs® & News

Nearby

Air Quality

  Air Quality AQ Index Pollutant
Not available.

Snow Depth

Station Depth Elevation

Earthquake Activity

City Distance Mag. Time & Date
Minimum magnitude displayed is 2.5.

Coastal Water Temperatures

Place Temperature

Stations

Nearby Weather Stations

Station Location Temp. Windchill Dew Point Humidity Wind Precip. Elev Updated Type
                   
Freeze Watch
Statement as of 8:11 PM EDT on March 27, 2015

... Freeze watch remains in effect from late Saturday night
through Sunday morning...

* temperatures... in the upper 20s to lower 30s.

* Timing... late Saturday night into early Sunday morning.

* Impacts... cold sensitive vegetation such as early crops... tree
buds... and outdoor plants... could be damaged or killed. Those
with agricultural and gardening interests should prepare for the
possibility of freezing temperatures and take precautions.

Precautionary/preparedness actions...

A freeze watch means sub-freezing temperatures are possible. These
conditions could kill crops and other sensitive vegetation. The
watch could be upgraded to a freeze warning.



8